Vineyard, Missouri
Current Conditions -  °F | °C
As of 7:35 AM on Sunday 23 Nov 2014 (Local Time) from KHFJ Reporting Station
Overcast Overcast  
Wind Chill: 55°   Ceiling: 1500
Heat Index: 55°   Visibility: 10mi
Dew Point: 54°   Wind: 6mph
Humidity: 94%   Direction: 140°SE
Pressure: 29.56"   Gusts: NA
Location:  37.1103°N, 93.9564°W
Report Text: KHFJ 231335Z AUTO 14005KT 10SM OVC015 13/12 A2956 RMK AO2
Loading
Personal Weather Stations






























Interactive Weather Map New forecast layout! Learn more

10-Day Weather Forecast

Advertisements
Track Severe Weather on mobile